Time;durP1;ratioP1;P1;durP2;ratioP2;P2;SDS_P1;SDS_P2;PMS_P1;PMS_P2;Temp;Humidity;BMP_temperature;BMP_pressure;BME280_temperature;BME280_humidity;BME280_pressure;Samples;Min_cycle;Max_cycle;Signal;HPM_P1;HPM_P2
2023/01/24 00:00:29;;;;;;;;;;;3.70;95.30;;;;;;5005510;28;20311;-78
2023/01/24 00:02:56;;;;;;;;;;;3.80;95.30;;;;;;5006091;28;20300;-78
2023/01/24 00:05:23;;;;;;;;;;;3.80;95.40;;;;;;5001374;28;19929;-78
2023/01/24 00:07:49;;;;;;;;;;;3.80;95.40;;;;;;5004019;28;20074;-78
2023/01/24 00:10:17;;;;;;;;;;;3.70;95.30;;;;;;5007483;28;20682;-78
2023/01/24 00:12:44;;;;;;;;;;;3.70;95.30;;;;;;5004081;28;19929;-78
2023/01/24 00:15:11;;;;;;;;;;;3.80;95.40;;;;;;5009181;28;19934;-78
2023/01/24 00:17:37;;;;;;;;;;;3.70;95.40;;;;;;5009582;28;20399;-79
2023/01/24 00:20:05;;;;;;;;;;;3.70;95.30;;;;;;5002477;28;20015;-76
2023/01/24 00:22:32;;;;;;;;;;;3.70;95.30;;;;;;5007512;28;20071;-77
2023/01/24 00:24:58;;;;;;;;;;;3.70;95.30;;;;;;5011281;28;19933;-78
2023/01/24 00:27:26;;;;;;;;;;;3.70;95.30;;;;;;5014198;28;19951;-77
2023/01/24 00:29:53;;;;;;;;;;;3.70;95.40;;;;;;5009046;28;19952;-77
2023/01/24 00:32:19;;;;;;;;;;;3.70;95.40;;;;;;5007145;28;19929;-77
2023/01/24 00:34:46;;;;;;;;;;;3.70;95.40;;;;;;5009791;28;19929;-77
2023/01/24 00:37:12;;;;;;;;;;;3.70;95.40;;;;;;5005000;28;20666;-78
2023/01/24 00:39:39;;;;;;;;;;;3.70;95.40;;;;;;5007474;28;19934;-78
2023/01/24 00:42:05;;;;;;;;;;;3.70;95.40;;;;;;5010079;28;19930;-77
2023/01/24 00:44:33;;;;;;;;;;;3.70;95.50;;;;;;5012050;28;19929;-78
2023/01/24 00:47:00;;;;;;;;;;;3.70;95.50;;;;;;5011613;28;19933;-77
2023/01/24 00:49:26;;;;;;;;;;;3.70;95.50;;;;;;5005411;28;19929;-77
2023/01/24 00:51:53;;;;;;;;;;;3.70;95.50;;;;;;5009746;28;19987;-78
2023/01/24 00:54:19;;;;;;;;;;;3.70;95.50;;;;;;5003543;28;19987;-77
2023/01/24 00:56:46;;;;;;;;;;;3.70;95.50;;;;;;5012715;28;19937;-77
2023/01/24 00:59:12;;;;;;;;;;;3.70;95.60;;;;;;5007445;28;19937;-78
2023/01/24 01:01:40;;;;;;;;;;;3.70;95.50;;;;;;5007924;28;19941;-76
2023/01/24 01:04:07;;;;;;;;;;;3.70;95.50;;;;;;5002137;28;19933;-78
2023/01/24 01:06:33;;;;;;;;;;;3.70;95.50;;;;;;5009810;28;19929;-76
2023/01/24 01:09:00;;;;;;;;;;;3.70;95.50;;;;;;5006846;28;19934;-77
2023/01/24 01:11:27;;;;;;;;;;;3.60;95.50;;;;;;5013509;28;19929;-78
2023/01/24 01:13:55;;;;;;;;;;;3.70;95.50;;;;;;5009386;28;19929;-77
2023/01/24 01:16:21;;;;;;;;;;;3.60;95.50;;;;;;5010969;28;19933;-79
2023/01/24 01:18:49;;;;;;;;;;;3.60;95.50;;;;;;5006700;28;20049;-78
2023/01/24 01:21:17;;;;;;;;;;;3.60;95.50;;;;;;5000117;28;19930;-77
2023/01/24 01:23:44;;;;;;;;;;;3.60;95.50;;;;;;5007638;28;19933;-78
2023/01/24 01:26:14;;;;;;;;;;;3.60;95.50;;;;;;5011484;28;20007;-78
2023/01/24 01:28:40;;;;;;;;;;;3.60;95.50;;;;;;5008278;28;19937;-77
2023/01/24 01:31:07;;;;;;;;;;;3.60;95.50;;;;;;5011032;28;19929;-77
2023/01/24 01:33:33;;;;;;;;;;;3.60;95.50;;;;;;5007880;28;19933;-78
2023/01/24 01:36:01;;;;;;;;;;;3.60;95.50;;;;;;5004551;28;19929;-78
2023/01/24 01:38:29;;;;;;;;;;;3.60;95.50;;;;;;5005366;28;19929;-77
2023/01/24 01:40:56;;;;;;;;;;;3.60;95.50;;;;;;5008867;28;19965;-77
2023/01/24 01:43:23;;;;;;;;;;;3.60;95.50;;;;;;5011756;28;19929;-78
2023/01/24 01:45:50;;;;;;;;;;;3.60;95.70;;;;;;5010808;28;19984;-77
2023/01/24 01:48:22;;;;;;;;;;;3.60;95.60;;;;;;5003872;28;20473;-78
2023/01/24 01:50:52;;;;;;;;;;;3.60;95.60;;;;;;5006537;28;19933;-77
2023/01/24 01:53:21;;;;;;;;;;;3.60;95.60;;;;;;5009026;28;19933;-76
2023/01/24 01:55:50;;;;;;;;;;;3.60;95.60;;;;;;5005452;28;19929;-78
2023/01/24 01:58:18;;;;;;;;;;;3.60;95.60;;;;;;5009586;28;19932;-79
2023/01/24 02:00:49;;;;;;;;;;;3.60;95.70;;;;;;5007778;28;20019;-80
2023/01/24 02:06:01;;;;;;;;;;;3.60;95.70;;;;;;5010803;28;19932;-77
2023/01/24 02:08:29;;;;;;;;;;;3.60;95.70;;;;;;5008198;28;20319;-77
2023/01/24 02:13:43;;;;;;;;;;;3.60;95.70;;;;;;5004416;28;19933;-77
2023/01/24 02:16:09;;;;;;;;;;;3.60;95.70;;;;;;5008872;28;19952;-77
2023/01/24 02:18:36;;;;;;;;;;;3.50;95.60;;;;;;5010049;28;20430;-78
2023/01/24 02:21:04;;;;;;;;;;;3.60;95.70;;;;;;5012970;28;19955;-78
2023/01/24 02:23:36;;;;;;;;;;;3.50;95.70;;;;;;5007988;28;19934;-77
2023/01/24 02:26:06;;;;;;;;;;;3.50;95.70;;;;;;5003220;28;19929;-77
2023/01/24 02:28:33;;;;;;;;;;;3.50;95.70;;;;;;5005482;28;19929;-78
2023/01/24 02:31:00;;;;;;;;;;;3.60;95.70;;;;;;5004826;28;19930;-76
2023/01/24 02:33:27;;;;;;;;;;;3.50;95.60;;;;;;5007528;28;19933;-77
2023/01/24 02:36:07;;;;;;;;;;;3.50;95.60;;;;;;5004783;28;19929;-78
2023/01/24 02:38:33;;;;;;;;;;;3.50;95.60;;;;;;5015404;28;20503;-76
2023/01/24 02:41:06;;;;;;;;;;;3.50;95.60;;;;;;5005599;28;19935;-78
2023/01/24 02:43:35;;;;;;;;;;;3.50;95.60;;;;;;5007208;28;20544;-78
2023/01/24 02:46:02;;;;;;;;;;;3.50;95.70;;;;;;5005258;28;19980;-77
2023/01/24 02:48:28;;;;;;;;;;;3.50;95.70;;;;;;5009967;28;19936;-78
2023/01/24 02:53:39;;;;;;;;;;;3.50;95.60;;;;;;5007137;28;19937;-77
2023/01/24 02:58:53;;;;;;;;;;;3.50;95.70;;;;;;5005657;28;20000;-77
2023/01/24 03:01:20;;;;;;;;;;;3.50;95.70;;;;;;5006010;28;19987;-77
2023/01/24 03:03:47;;;;;;;;;;;3.50;95.70;;;;;;5006000;28;19933;-78
2023/01/24 03:06:14;;;;;;;;;;;3.50;95.80;;;;;;5003605;28;19937;-78
2023/01/24 03:08:41;;;;;;;;;;;3.50;95.80;;;;;;4996669;28;19930;-78
2023/01/24 03:11:08;;;;;;;;;;;3.50;95.70;;;;;;5009736;28;19929;-77
2023/01/24 03:35:31;;;;;;;;;;;3.50;95.80;;;;;;5002397;28;19937;-78
2023/01/24 03:40:43;;;;;;;;;;;3.50;95.80;;;;;;5004326;28;19936;-78
2023/01/24 03:43:09;;;;;;;;;;;3.40;95.80;;;;;;5001820;28;20203;-76
2023/01/24 03:45:36;;;;;;;;;;;3.50;95.80;;;;;;5003098;28;19937;-78
2023/01/24 03:48:12;;;;;;;;;;;3.50;95.90;;;;;;5002977;28;19991;-77
2023/01/24 03:53:25;;;;;;;;;;;3.40;95.80;;;;;;5003847;28;19933;-78
2023/01/24 03:55:52;;;;;;;;;;;3.40;95.80;;;;;;5005484;28;20028;-78
2023/01/24 03:58:18;;;;;;;;;;;3.40;95.80;;;;;;5004239;28;19930;-78
2023/01/24 04:00:45;;;;;;;;;;;3.40;95.80;;;;;;5004680;28;19933;-77
2023/01/24 04:03:13;;;;;;;;;;;3.40;95.80;;;;;;5012442;28;19933;-78
2023/01/24 04:05:39;;;;;;;;;;;3.40;95.80;;;;;;5001751;28;19936;-78
2023/01/24 04:08:07;;;;;;;;;;;3.50;95.90;;;;;;5006616;28;19941;-78
2023/01/24 04:10:34;;;;;;;;;;;3.50;95.90;;;;;;5006702;28;19929;-77
2023/01/24 04:13:00;;;;;;;;;;;3.40;95.90;;;;;;5004441;28;19933;-78
2023/01/24 04:15:28;;;;;;;;;;;3.40;95.90;;;;;;5007337;28;20399;-79
2023/01/24 04:17:56;;;;;;;;;;;3.40;96.00;;;;;;5009209;28;19929;-78
2023/01/24 04:20:24;;;;;;;;;;;3.50;96.00;;;;;;5000821;28;20039;-78
2023/01/24 04:22:50;;;;;;;;;;;3.40;95.90;;;;;;5008570;28;20393;-78
2023/01/24 04:25:17;;;;;;;;;;;3.40;95.80;;;;;;5003121;28;19934;-78
2023/01/24 04:27:44;;;;;;;;;;;3.40;95.90;;;;;;5003852;28;20031;-78
2023/01/24 04:30:11;;;;;;;;;;;3.40;95.90;;;;;;5000058;28;19937;-77
2023/01/24 04:32:37;;;;;;;;;;;3.40;95.90;;;;;;5007671;28;20085;-79
2023/01/24 04:35:04;;;;;;;;;;;3.40;96.00;;;;;;5006349;28;19933;-79
2023/01/24 04:37:32;;;;;;;;;;;3.40;96.00;;;;;;5008307;28;19944;-77
2023/01/24 04:40:00;;;;;;;;;;;3.40;95.90;;;;;;5007295;28;19936;-78
2023/01/24 04:42:26;;;;;;;;;;;3.40;95.90;;;;;;5004440;28;19945;-78
2023/01/24 04:44:53;;;;;;;;;;;3.40;96.00;;;;;;5004030;28;19936;-78
2023/01/24 04:47:19;;;;;;;;;;;3.40;96.00;;;;;;5001625;28;20384;-77
2023/01/24 04:49:46;;;;;;;;;;;3.40;96.00;;;;;;5006807;28;19929;-78
2023/01/24 04:52:13;;;;;;;;;;;3.40;95.90;;;;;;5005916;28;19960;-78
2023/01/24 04:54:41;;;;;;;;;;;3.40;95.90;;;;;;5010876;28;19929;-78
2023/01/24 04:57:08;;;;;;;;;;;3.40;95.90;;;;;;5006218;28;19930;-78
2023/01/24 04:59:34;;;;;;;;;;;3.40;95.90;;;;;;5009561;28;19929;-77
2023/01/24 05:02:01;;;;;;;;;;;3.40;96.00;;;;;;5006580;28;19929;-77
2023/01/24 05:04:28;;;;;;;;;;;3.40;96.30;;;;;;5002429;28;19930;-77
2023/01/24 05:06:54;;;;;;;;;;;3.40;96.00;;;;;;5005154;28;19933;-78
2023/01/24 05:09:21;;;;;;;;;;;3.40;96.00;;;;;;5009378;28;20327;-78
2023/01/24 05:11:49;;;;;;;;;;;3.40;96.00;;;;;;5005508;28;20674;-78
2023/01/24 05:14:15;;;;;;;;;;;3.40;96.00;;;;;;5006083;28;19933;-79
2023/01/24 05:16:42;;;;;;;;;;;3.40;96.00;;;;;;5010346;28;20542;-79
2023/01/24 05:19:08;;;;;;;;;;;3.40;95.90;;;;;;5006145;28;19937;-78
2023/01/24 05:21:35;;;;;;;;;;;3.40;96.00;;;;;;5007043;28;19929;-79
2023/01/24 05:24:02;;;;;;;;;;;3.40;96.00;;;;;;5008446;28;19936;-78
2023/01/24 05:26:28;;;;;;;;;;;3.40;96.00;;;;;;5003534;28;19930;-78
2023/01/24 05:28:56;;;;;;;;;;;3.40;96.00;;;;;;5009194;28;19991;-78
2023/01/24 05:31:23;;;;;;;;;;;3.40;96.00;;;;;;5007880;28;19959;-78
2023/01/24 05:33:49;;;;;;;;;;;3.40;96.00;;;;;;5006775;28;19933;-78
2023/01/24 05:36:16;;;;;;;;;;;3.40;96.00;;;;;;5002109;28;20668;-78
2023/01/24 05:38:43;;;;;;;;;;;3.30;95.90;;;;;;5006910;28;19936;-77
2023/01/24 05:41:10;;;;;;;;;;;3.30;96.00;;;;;;5004413;28;19945;-78
2023/01/24 05:43:37;;;;;;;;;;;3.40;96.00;;;;;;5007359;28;19984;-78
2023/01/24 05:46:06;;;;;;;;;;;3.30;96.00;;;;;;5009834;28;19936;-78
2023/01/24 05:48:32;;;;;;;;;;;3.40;96.00;;;;;;5008276;28;20052;-78
2023/01/24 05:50:59;;;;;;;;;;;3.30;96.00;;;;;;5002000;28;19941;-78
2023/01/24 05:53:26;;;;;;;;;;;3.30;96.00;;;;;;5001676;28;19937;-78
2023/01/24 05:55:56;;;;;;;;;;;3.30;96.00;;;;;;5012637;28;19929;-77
2023/01/24 05:58:23;;;;;;;;;;;3.40;96.00;;;;;;5011805;28;19933;-79
2023/01/24 06:00:49;;;;;;;;;;;3.30;95.90;;;;;;5007115;28;19936;-78
2023/01/24 06:03:17;;;;;;;;;;;3.30;96.00;;;;;;4998490;28;19941;-76
2023/01/24 06:05:46;;;;;;;;;;;3.30;96.00;;;;;;5007455;28;19929;-78
2023/01/24 06:08:12;;;;;;;;;;;3.30;96.00;;;;;;5003364;28;19933;-78
2023/01/24 06:10:39;;;;;;;;;;;3.40;96.00;;;;;;5005681;28;19937;-77
2023/01/24 06:13:05;;;;;;;;;;;3.30;96.30;;;;;;5008964;28;19933;-78
2023/01/24 06:15:32;;;;;;;;;;;3.30;96.00;;;;;;5008122;28;19933;-77
2023/01/24 06:17:58;;;;;;;;;;;3.30;96.00;;;;;;5006091;28;20460;-78
2023/01/24 06:20:27;;;;;;;;;;;3.30;96.00;;;;;;5004752;28;19940;-79
2023/01/24 06:22:54;;;;;;;;;;;3.40;95.90;;;;;;5007286;28;19934;-80
2023/01/24 06:25:21;;;;;;;;;;;3.30;95.90;;;;;;5003627;28;19929;-79
2023/01/24 06:27:48;;;;;;;;;;;3.30;95.90;;;;;;5012110;28;19933;-79
2023/01/24 06:30:15;;;;;;;;;;;3.30;96.00;;;;;;5009830;28;20012;-79
2023/01/24 06:32:50;;;;;;;;;;;3.30;96.00;;;;;;5010044;28;19934;-81
2023/01/24 06:35:20;;;;;;;;;;;3.30;96.10;;;;;;4995441;28;19933;-79
2023/01/24 06:37:49;;;;;;;;;;;3.30;96.10;;;;;;4999372;28;19984;-77
2023/01/24 06:40:16;;;;;;;;;;;3.30;96.10;;;;;;5003249;28;19933;-77
2023/01/24 06:42:43;;;;;;;;;;;3.30;96.10;;;;;;5000590;28;19937;-78
2023/01/24 06:45:11;;;;;;;;;;;3.30;96.10;;;;;;5001766;28;20033;-78
2023/01/24 06:47:37;;;;;;;;;;;3.30;96.10;;;;;;5002848;28;20340;-79
2023/01/24 06:50:06;;;;;;;;;;;3.30;96.10;;;;;;4996923;28;19944;-74
2023/01/24 06:52:32;;;;;;;;;;;3.30;96.00;;;;;;5004668;28;19964;-73
2023/01/24 06:55:00;;;;;;;;;;;3.30;96.00;;;;;;5005743;28;19933;-73
2023/01/24 06:57:27;;;;;;;;;;;3.30;96.00;;;;;;5006188;28;20036;-73
2023/01/24 06:59:53;;;;;;;;;;;3.30;96.00;;;;;;5005582;28;19929;-73
2023/01/24 07:02:20;;;;;;;;;;;3.30;96.00;;;;;;4998315;28;20395;-73
2023/01/24 07:04:46;;;;;;;;;;;3.30;96.00;;;;;;5001909;28;19930;-74
2023/01/24 07:07:13;;;;;;;;;;;3.30;96.00;;;;;;5004462;28;19968;-73
2023/01/24 07:09:39;;;;;;;;;;;3.30;96.10;;;;;;5007056;28;21914;-73
2023/01/24 07:12:07;;;;;;;;;;;3.30;96.10;;;;;;5005207;28;19940;-72
2023/01/24 07:14:34;;;;;;;;;;;3.30;96.10;;;;;;5004429;28;19996;-74
2023/01/24 07:17:00;;;;;;;;;;;3.30;96.10;;;;;;5003691;28;19933;-73
2023/01/24 07:19:27;;;;;;;;;;;3.30;96.10;;;;;;5002159;28;19937;-73
2023/01/24 07:21:56;;;;;;;;;;;3.30;96.20;;;;;;5000429;28;19929;-73
2023/01/24 07:24:24;;;;;;;;;;;3.30;96.10;;;;;;5001967;28;19933;-73
2023/01/24 07:26:52;;;;;;;;;;;3.30;96.10;;;;;;5001732;28;19934;-74
2023/01/24 07:29:20;;;;;;;;;;;3.30;96.10;;;;;;5005210;28;19936;-74
2023/01/24 07:31:47;;;;;;;;;;;3.30;96.10;;;;;;5003219;28;19933;-73
2023/01/24 07:34:14;;;;;;;;;;;3.30;96.10;;;;;;5005887;28;19936;-74
2023/01/24 07:36:41;;;;;;;;;;;3.30;96.10;;;;;;5002097;28;21073;-73
2023/01/24 07:39:07;;;;;;;;;;;3.30;96.10;;;;;;5002952;28;19926;-73
2023/01/24 07:41:35;;;;;;;;;;;3.30;96.20;;;;;;5006054;28;19941;-74
2023/01/24 07:44:04;;;;;;;;;;;3.30;96.20;;;;;;5006906;28;20319;-74
2023/01/24 07:46:32;;;;;;;;;;;3.30;96.20;;;;;;5005329;28;19975;-74
2023/01/24 07:48:59;;;;;;;;;;;3.30;96.20;;;;;;5004337;28;20406;-72
2023/01/24 07:51:25;;;;;;;;;;;3.30;96.20;;;;;;4997855;28;19933;-73
2023/01/24 07:53:52;;;;;;;;;;;3.30;96.20;;;;;;4999558;28;19937;-73
2023/01/24 07:56:18;;;;;;;;;;;3.30;96.20;;;;;;5000902;28;19937;-74
2023/01/24 07:58:45;;;;;;;;;;;3.30;96.20;;;;;;4999016;28;19933;-75
2023/01/24 08:01:16;;;;;;;;;;;3.30;96.40;;;;;;5003505;28;19929;-74
2023/01/24 08:03:44;;;;;;;;;;;3.30;96.20;;;;;;5005906;28;19934;-74
2023/01/24 08:06:10;;;;;;;;;;;3.30;96.20;;;;;;5003446;28;20015;-74
2023/01/24 08:08:37;;;;;;;;;;;3.30;96.20;;;;;;4999827;28;19933;-73
2023/01/24 08:11:03;;;;;;;;;;;3.30;96.20;;;;;;5004804;28;19963;-74
2023/01/24 08:13:30;;;;;;;;;;;3.30;96.20;;;;;;5002127;28;19940;-74
2023/01/24 08:15:57;;;;;;;;;;;3.30;96.20;;;;;;5008486;28;19929;-73
2023/01/24 08:18:23;;;;;;;;;;;3.30;96.20;;;;;;5000251;28;19937;-74
2023/01/24 08:20:54;;;;;;;;;;;3.30;96.20;;;;;;5004084;28;20383;-74
2023/01/24 08:23:21;;;;;;;;;;;3.30;96.20;;;;;;5000339;28;20437;-74
2023/01/24 08:25:47;;;;;;;;;;;3.30;96.20;;;;;;5002602;28;19937;-74
2023/01/24 08:28:14;;;;;;;;;;;3.30;96.20;;;;;;5003500;28;19941;-73
2023/01/24 08:30:40;;;;;;;;;;;3.30;96.20;;;;;;5010187;28;19937;-73
2023/01/24 08:33:08;;;;;;;;;;;3.30;96.20;;;;;;5010425;28;19933;-74
2023/01/24 08:35:34;;;;;;;;;;;3.30;96.20;;;;;;5005800;28;19925;-73
2023/01/24 08:38:02;;;;;;;;;;;3.30;96.20;;;;;;5007525;28;19933;-73
2023/01/24 08:40:29;;;;;;;;;;;3.30;96.20;;;;;;5000678;28;19930;-73
2023/01/24 08:42:55;;;;;;;;;;;3.30;96.20;;;;;;5001289;28;19937;-73
2023/01/24 08:45:22;;;;;;;;;;;3.30;96.20;;;;;;5007746;28;19941;-73
2023/01/24 08:47:51;;;;;;;;;;;3.30;96.20;;;;;;5007600;28;19999;-73
2023/01/24 08:50:19;;;;;;;;;;;3.30;96.20;;;;;;5006098;28;19936;-73
2023/01/24 08:52:46;;;;;;;;;;;3.30;96.20;;;;;;5004496;28;20015;-74
2023/01/24 08:55:14;;;;;;;;;;;3.30;96.20;;;;;;5008694;28;20016;-73
2023/01/24 08:57:40;;;;;;;;;;;3.30;96.20;;;;;;5001100;28;19941;-73
2023/01/24 09:00:07;;;;;;;;;;;3.30;96.20;;;;;;5011336;28;20419;-74
2023/01/24 09:02:36;;;;;;;;;;;3.30;96.20;;;;;;5007149;28;19941;-74
2023/01/24 09:05:03;;;;;;;;;;;3.30;96.20;;;;;;5007245;28;19938;-73
2023/01/24 09:07:29;;;;;;;;;;;3.30;96.20;;;;;;5005321;28;19933;-74
2023/01/24 09:09:56;;;;;;;;;;;3.30;96.20;;;;;;5009599;28;20497;-73
2023/01/24 09:12:24;;;;;;;;;;;3.30;96.20;;;;;;5008194;28;19929;-73
2023/01/24 09:14:50;;;;;;;;;;;3.30;96.20;;;;;;5006365;28;19944;-73
2023/01/24 09:17:17;;;;;;;;;;;3.30;96.20;;;;;;5008252;28;19933;-73
2023/01/24 09:19:43;;;;;;;;;;;3.30;96.20;;;;;;5006974;28;19933;-75
2023/01/24 09:22:10;;;;;;;;;;;3.30;96.10;;;;;;5004737;28;19929;-75
2023/01/24 09:24:36;;;;;;;;;;;3.30;96.10;;;;;;5004523;28;19933;-73
2023/01/24 09:27:03;;;;;;;;;;;3.40;96.20;;;;;;5006983;28;20160;-73
2023/01/24 09:29:31;;;;;;;;;;;3.30;96.10;;;;;;5006149;28;19940;-74
2023/01/24 09:31:57;;;;;;;;;;;3.30;96.10;;;;;;5005590;28;19941;-73
2023/01/24 09:34:24;;;;;;;;;;;3.30;96.10;;;;;;5002002;28;19956;-73
2023/01/24 09:36:50;;;;;;;;;;;3.40;96.10;;;;;;5005202;28;20598;-74
2023/01/24 09:39:17;;;;;;;;;;;3.40;96.20;;;;;;5005988;28;19934;-74
2023/01/24 09:41:52;;;;;;;;;;;3.40;96.20;;;;;;5009529;28;19936;-73
2023/01/24 09:44:22;;;;;;;;;;;3.40;96.20;;;;;;5007788;28;19984;-74
2023/01/24 09:46:51;;;;;;;;;;;3.40;96.20;;;;;;5006573;28;20029;-73
2023/01/24 09:49:22;;;;;;;;;;;3.40;96.50;;;;;;5004926;28;19929;-73
2023/01/24 09:51:50;;;;;;;;;;;3.40;96.20;;;;;;5007466;28;19929;-73
2023/01/24 09:54:18;;;;;;;;;;;3.40;96.20;;;;;;5005858;28;20415;-72
2023/01/24 09:56:46;;;;;;;;;;;3.40;96.20;;;;;;4999902;28;19977;-72
2023/01/24 09:59:16;;;;;;;;;;;3.40;96.20;;;;;;5005080;28;19925;-73
2023/01/24 10:01:43;;;;;;;;;;;3.40;96.20;;;;;;5004582;28;19934;-74
2023/01/24 10:04:14;;;;;;;;;;;3.50;96.20;;;;;;5004926;28;20615;-75
2023/01/24 10:06:44;;;;;;;;;;;3.40;96.10;;;;;;5005592;28;19929;-73
2023/01/24 10:09:13;;;;;;;;;;;3.40;96.10;;;;;;5004289;28;19929;-74
2023/01/24 10:11:45;;;;;;;;;;;3.40;96.10;;;;;;5006952;28;20273;-74
2023/01/24 10:14:28;;;;;;;;;;;3.40;96.10;;;;;;5000435;28;19937;-74
2023/01/24 10:17:22;;;;;;;;;;;3.40;96.10;;;;;;5012036;28;19938;-73
2023/01/24 10:19:59;;;;;;;;;;;3.50;96.50;;;;;;5005308;28;19936;-73
2023/01/24 10:22:35;;;;;;;;;;;3.50;96.10;;;;;;5003843;28;19929;-73
2023/01/24 10:25:04;;;;;;;;;;;3.50;96.10;;;;;;5003522;28;19940;-73
2023/01/24 10:27:32;;;;;;;;;;;3.50;96.50;;;;;;5004476;28;19929;-73
2023/01/24 10:30:00;;;;;;;;;;;3.50;96.10;;;;;;5002290;28;19936;-73
2023/01/24 10:32:30;;;;;;;;;;;3.50;96.10;;;;;;5005721;28;19930;-73
2023/01/24 10:35:02;;;;;;;;;;;3.50;96.10;;;;;;5004124;28;19936;-73
2023/01/24 10:37:33;;;;;;;;;;;3.50;96.10;;;;;;5006717;28;19936;-73
2023/01/24 10:40:00;;;;;;;;;;;3.50;96.10;;;;;;5007903;28;19936;-73
2023/01/24 10:42:28;;;;;;;;;;;3.50;96.10;;;;;;5007178;28;19976;-73
2023/01/24 10:44:57;;;;;;;;;;;3.60;96.20;;;;;;5004553;28;19941;-73
2023/01/24 10:47:41;;;;;;;;;;;3.60;96.10;;;;;;5005111;28;19929;-74
2023/01/24 10:50:10;;;;;;;;;;;3.60;96.10;;;;;;5000770;28;20572;-73
2023/01/24 10:52:37;;;;;;;;;;;3.60;96.10;;;;;;5002861;28;19932;-74
2023/01/24 10:55:05;;;;;;;;;;;3.60;96.10;;;;;;5009465;28;20749;-73
2023/01/24 10:57:39;;;;;;;;;;;3.60;96.10;;;;;;5005512;28;20012;-74
2023/01/24 11:00:17;;;;;;;;;;;3.60;96.10;;;;;;5003799;28;19929;-74
2023/01/24 11:02:47;;;;;;;;;;;3.60;96.10;;;;;;5000748;28;20830;-75
2023/01/24 11:05:15;;;;;;;;;;;3.60;96.10;;;;;;5006728;28;19933;-74
2023/01/24 11:07:45;;;;;;;;;;;3.60;96.10;;;;;;5006096;28;19926;-74
2023/01/24 11:10:18;;;;;;;;;;;3.60;96.10;;;;;;5006659;28;19936;-73
2023/01/24 11:12:48;;;;;;;;;;;3.70;96.10;;;;;;4996947;28;20521;-73
2023/01/24 11:15:17;;;;;;;;;;;3.60;96.10;;;;;;5002097;28;19940;-73
2023/01/24 11:17:44;;;;;;;;;;;3.70;96.10;;;;;;5004909;28;20220;-73
2023/01/24 11:20:21;;;;;;;;;;;3.60;96.00;;;;;;5003853;28;19930;-74
2023/01/24 11:22:50;;;;;;;;;;;3.60;96.10;;;;;;5002659;28;20392;-73
2023/01/24 11:25:17;;;;;;;;;;;3.70;96.10;;;;;;5003137;28;19929;-73
2023/01/24 11:27:47;;;;;;;;;;;3.70;96.00;;;;;;5005172;28;20003;-73
2023/01/24 11:30:16;;;;;;;;;;;3.70;96.00;;;;;;5004014;28;19941;-73
2023/01/24 11:32:46;;;;;;;;;;;3.70;96.00;;;;;;5012113;28;20486;-73
2023/01/24 11:35:15;;;;;;;;;;;3.70;96.00;;;;;;5002526;28;20016;-73
2023/01/24 11:37:51;;;;;;;;;;;3.70;96.00;;;;;;5004514;28;20353;-78
2023/01/24 11:40:25;;;;;;;;;;;3.70;96.00;;;;;;5007221;28;19929;-77
2023/01/24 11:42:57;;;;;;;;;;;3.80;96.00;;;;;;5002333;28;19940;-78
2023/01/24 11:45:27;;;;;;;;;;;3.80;96.00;;;;;;5006656;28;20444;-77
2023/01/24 11:48:06;;;;;;;;;;;3.70;96.00;;;;;;5006067;28;20436;-78
2023/01/24 11:50:37;;;;;;;;;;;3.80;96.00;;;;;;4999160;28;19937;-77
2023/01/24 11:53:28;;;;;;;;;;;3.80;96.00;;;;;;4997911;28;20427;-78
2023/01/24 11:56:00;;;;;;;;;;;3.80;96.00;;;;;;4977599;28;20025;-77
2023/01/24 11:58:41;;;;;;;;;;;3.80;96.00;;;;;;4999921;28;19929;-78
2023/01/24 12:01:11;;;;;;;;;;;3.80;96.00;;;;;;4994926;28;20494;-78
2023/01/24 12:03:53;;;;;;;;;;;3.80;96.00;;;;;;5004574;28;20469;-78
2023/01/24 12:06:25;;;;;;;;;;;3.80;96.00;;;;;;5004592;28;19936;-78
2023/01/24 12:09:07;;;;;;;;;;;3.80;96.00;;;;;;5003642;28;19941;-78
2023/01/24 12:11:37;;;;;;;;;;;3.80;96.00;;;;;;5007907;28;19929;-79
2023/01/24 12:14:28;;;;;;;;;;;3.80;96.00;;;;;;5014578;28;19933;-78
2023/01/24 12:16:58;;;;;;;;;;;3.80;96.00;;;;;;5008628;28;19941;-78
2023/01/24 12:19:38;;;;;;;;;;;3.90;95.90;;;;;;5011568;28;19945;-78
2023/01/24 12:22:10;;;;;;;;;;;3.90;95.90;;;;;;5005625;28;19929;-78
2023/01/24 12:24:38;;;;;;;;;;;3.90;95.90;;;;;;5009421;28;19930;-79
2023/01/24 12:27:09;;;;;;;;;;;3.90;95.90;;;;;;5004386;28;19934;-78
2023/01/24 12:29:39;;;;;;;;;;;3.90;95.90;;;;;;5005834;28;19940;-77
2023/01/24 12:32:10;;;;;;;;;;;3.90;95.90;;;;;;5006301;28;19930;-78
2023/01/24 12:34:42;;;;;;;;;;;4.00;96.00;;;;;;5007661;28;20428;-78
2023/01/24 12:37:12;;;;;;;;;;;3.90;95.90;;;;;;4994102;28;21239;-79
2023/01/24 12:39:44;;;;;;;;;;;4.00;95.90;;;;;;5001611;28;20443;-81
2023/01/24 12:42:14;;;;;;;;;;;4.00;95.90;;;;;;5000349;28;19932;-78
2023/01/24 12:44:43;;;;;;;;;;;4.00;95.90;;;;;;5005418;28;19933;-78
2023/01/24 12:47:16;;;;;;;;;;;4.00;95.90;;;;;;5005480;28;19937;-79
2023/01/24 12:49:46;;;;;;;;;;;4.00;95.90;;;;;;5000239;28;20335;-79
2023/01/24 12:52:18;;;;;;;;;;;4.00;95.80;;;;;;5002246;28;20449;-78
2023/01/24 12:54:47;;;;;;;;;;;4.00;95.80;;;;;;5007218;28;19929;-78
2023/01/24 12:57:19;;;;;;;;;;;4.00;95.80;;;;;;5002524;28;19930;-78
2023/01/24 12:59:46;;;;;;;;;;;4.00;95.80;;;;;;5006068;28;19933;-79
2023/01/24 13:02:32;;;;;;;;;;;4.00;95.80;;;;;;5003597;28;19926;-79
2023/01/24 13:05:11;;;;;;;;;;;4.00;95.80;;;;;;5006650;28;20011;-78
2023/01/24 13:07:43;;;;;;;;;;;4.10;95.80;;;;;;5004010;28;19936;-80
2023/01/24 13:10:14;;;;;;;;;;;4.10;95.80;;;;;;5000816;28;19976;-78
2023/01/24 13:12:43;;;;;;;;;;;4.10;95.80;;;;;;5000647;28;19929;-78
2023/01/24 13:15:14;;;;;;;;;;;4.10;95.80;;;;;;5012594;28;20401;-79
2023/01/24 13:17:59;;;;;;;;;;;4.10;95.80;;;;;;5012341;28;19952;-78
2023/01/24 13:20:32;;;;;;;;;;;4.10;95.70;;;;;;4995857;28;19930;-80
2023/01/24 13:23:06;;;;;;;;;;;4.10;95.70;;;;;;5004401;28;20569;-78
2023/01/24 13:25:42;;;;;;;;;;;4.10;95.70;;;;;;5010151;28;19940;-79
2023/01/24 13:28:16;;;;;;;;;;;4.10;95.70;;;;;;5006661;28;19936;-79
2023/01/24 13:30:47;;;;;;;;;;;4.10;95.70;;;;;;5006237;28;20710;-78
2023/01/24 13:33:16;;;;;;;;;;;4.10;95.70;;;;;;5006346;28;20394;-79
2023/01/24 13:35:47;;;;;;;;;;;4.10;95.60;;;;;;5006042;28;19945;-78
2023/01/24 13:38:17;;;;;;;;;;;4.10;95.70;;;;;;5003925;28;19925;-78
2023/01/24 13:40:56;;;;;;;;;;;4.10;95.70;;;;;;5010331;28;19952;-78
2023/01/24 13:43:41;;;;;;;;;;;4.20;95.70;;;;;;5003970;28;19929;-79
2023/01/24 13:46:09;;;;;;;;;;;4.20;95.70;;;;;;5005360;28;19947;-79
2023/01/24 13:48:46;;;;;;;;;;;4.20;95.70;;;;;;5005543;28;19945;-78
2023/01/24 13:51:23;;;;;;;;;;;4.10;95.60;;;;;;5004657;28;19930;-79
2023/01/24 13:53:59;;;;;;;;;;;4.20;95.60;;;;;;5005160;28;20230;-79
2023/01/24 13:56:25;;;;;;;;;;;4.20;95.60;;;;;;4997972;28;19930;-78
2023/01/24 13:58:53;;;;;;;;;;;4.20;95.60;;;;;;5005198;28;19929;-78
2023/01/24 14:01:21;;;;;;;;;;;4.20;95.70;;;;;;5001915;28;19933;-78
2023/01/24 14:03:56;;;;;;;;;;;4.20;95.70;;;;;;5000121;28;19949;-77
2023/01/24 14:06:25;;;;;;;;;;;4.20;95.60;;;;;;5002455;28;20494;-78
2023/01/24 14:09:01;;;;;;;;;;;4.20;95.60;;;;;;5002741;28;20542;-78
2023/01/24 14:11:36;;;;;;;;;;;4.20;95.60;;;;;;5002614;28;19933;-77
2023/01/24 14:14:25;;;;;;;;;;;4.20;95.60;;;;;;5003128;28;19933;-77
2023/01/24 14:16:58;;;;;;;;;;;4.20;95.70;;;;;;5005708;28;19940;-78
2023/01/24 14:19:29;;;;;;;;;;;4.20;95.70;;;;;;4999358;28;19929;-77
2023/01/24 14:21:58;;;;;;;;;;;4.20;95.70;;;;;;5003110;28;19941;-77
2023/01/24 14:24:26;;;;;;;;;;;4.20;95.60;;;;;;5003087;28;19936;-77
2023/01/24 14:26:53;;;;;;;;;;;4.20;95.60;;;;;;5004330;28;19930;-79
2023/01/24 14:29:21;;;;;;;;;;;4.20;95.60;;;;;;5004911;28;19933;-77
2023/01/24 14:31:50;;;;;;;;;;;4.20;95.70;;;;;;4997925;28;19929;-78
2023/01/24 14:34:21;;;;;;;;;;;4.20;95.90;;;;;;4994798;28;20339;-77
2023/01/24 14:36:50;;;;;;;;;;;4.20;95.60;;;;;;5003000;28;19929;-72
2023/01/24 14:39:21;;;;;;;;;;;4.20;95.60;;;;;;5004636;28;20112;-72
2023/01/24 14:41:48;;;;;;;;;;;4.20;95.60;;;;;;4995913;28;19925;-73
2023/01/24 14:44:19;;;;;;;;;;;4.20;95.60;;;;;;5004770;28;19937;-73
2023/01/24 14:46:52;;;;;;;;;;;4.20;95.60;;;;;;4999588;28;19937;-73
2023/01/24 14:49:25;;;;;;;;;;;4.20;95.60;;;;;;4997855;28;19930;-72
2023/01/24 14:51:52;;;;;;;;;;;4.20;95.60;;;;;;5004524;28;19934;-72
2023/01/24 14:54:20;;;;;;;;;;;4.20;95.60;;;;;;5004341;28;19929;-71
2023/01/24 14:56:47;;;;;;;;;;;4.20;95.60;;;;;;4992721;28;19997;-72
2023/01/24 14:59:14;;;;;;;;;;;4.20;95.90;;;;;;5003595;28;19933;-72
2023/01/24 15:01:41;;;;;;;;;;;4.20;95.60;;;;;;5003707;28;19933;-71
2023/01/24 15:04:20;;;;;;;;;;;4.20;95.60;;;;;;5007434;28;20707;-71
2023/01/24 15:07:02;;;;;;;;;;;4.20;95.60;;;;;;4999217;28;20068;-72
2023/01/24 15:09:29;;;;;;;;;;;4.20;95.70;;;;;;4999310;28;19929;-72
2023/01/24 15:11:55;;;;;;;;;;;4.20;95.70;;;;;;4999990;28;19940;-72
2023/01/24 15:14:24;;;;;;;;;;;4.20;95.70;;;;;;5006929;28;21310;-72
2023/01/24 15:16:52;;;;;;;;;;;4.20;95.60;;;;;;5005007;28;20328;-71
2023/01/24 15:19:20;;;;;;;;;;;4.20;95.70;;;;;;5007248;28;20024;-72